createdAt,value
2018-04-20T00:02:20.603Z,17.90
2018-04-20T00:04:47.674Z,17.80
2018-04-20T00:07:14.757Z,17.70
2018-04-20T00:09:41.067Z,17.60
2018-04-20T00:12:07.481Z,17.80
2018-04-20T00:14:33.825Z,17.90
2018-04-20T00:17:00.277Z,18.00
2018-04-20T00:19:26.603Z,17.70
2018-04-20T00:21:52.960Z,17.60
2018-04-20T00:24:19.306Z,17.70
2018-04-20T00:26:45.662Z,17.40
2018-04-20T00:29:11.969Z,17.40
2018-04-20T00:31:38.308Z,17.50
2018-04-20T00:34:04.615Z,17.40
2018-04-20T00:36:30.947Z,17.40
2018-04-20T00:38:57.248Z,17.40
2018-04-20T00:41:23.576Z,17.40
2018-04-20T00:43:49.889Z,17.40
2018-04-20T00:46:16.983Z,17.50
2018-04-20T00:48:43.323Z,17.40
2018-04-20T00:51:09.683Z,17.40
2018-04-20T00:53:49.098Z,17.40
2018-04-20T00:56:16.413Z,17.30
2018-04-20T00:58:42.727Z,17.40
2018-04-20T01:01:09.077Z,17.30
2018-04-20T01:03:35.396Z,17.20
2018-04-20T01:06:01.750Z,17.20
2018-04-20T01:08:29.053Z,17.10
2018-04-20T01:10:56.151Z,17.30
2018-04-20T01:13:22.481Z,17.30
2018-04-20T01:15:48.831Z,17.00
2018-04-20T01:18:15.198Z,17.00
2018-04-20T01:20:42.259Z,17.10
2018-04-20T01:23:08.607Z,17.00
2018-04-20T01:25:34.941Z,17.10
2018-04-20T01:28:01.945Z,17.10
2018-04-20T01:30:28.264Z,17.00
2018-04-20T01:32:54.617Z,16.90
2018-04-20T01:35:20.958Z,16.90
2018-04-20T01:37:48.038Z,16.70
2018-04-20T01:40:14.413Z,16.70
2018-04-20T01:42:41.488Z,16.70
2018-04-20T01:45:08.538Z,16.70
2018-04-20T01:47:34.917Z,16.60
2018-04-20T01:50:01.250Z,16.70
2018-04-20T01:52:27.584Z,16.70
2018-04-20T01:54:53.906Z,16.80
2018-04-20T01:57:20.235Z,16.70
2018-04-20T01:59:48.026Z,16.70
2018-04-20T02:02:14.338Z,16.60
2018-04-20T02:04:41.433Z,16.40
2018-04-20T02:07:07.778Z,16.40
2018-04-20T02:09:34.092Z,16.40
2018-04-20T02:12:00.450Z,16.30
2018-04-20T02:14:27.808Z,16.70
2018-04-20T02:16:54.154Z,16.60
2018-04-20T02:19:20.465Z,16.60
2018-04-20T02:21:46.794Z,16.50
2018-04-20T02:24:13.145Z,16.60
2018-04-20T02:26:39.485Z,16.60
2018-04-20T02:29:05.810Z,16.50
2018-04-20T02:31:32.121Z,16.60
2018-04-20T02:33:58.483Z,16.50
2018-04-20T02:36:25.565Z,16.30
2018-04-20T02:38:51.935Z,16.30
2018-04-20T02:41:18.257Z,16.20
2018-04-20T02:43:44.622Z,16.10
2018-04-20T02:46:10.955Z,16.10
2018-04-20T02:48:37.336Z,16.40
2018-04-20T02:51:03.655Z,16.30
2018-04-20T02:53:30.013Z,16.30
2018-04-20T02:55:56.371Z,16.20
2018-04-20T02:58:23.480Z,16.00
2018-04-20T03:00:49.794Z,16.00
2018-04-20T03:03:16.218Z,15.90
2018-04-20T03:05:42.560Z,15.80
2018-04-20T03:08:08.908Z,15.80
2018-04-20T03:10:35.268Z,15.90
2018-04-20T03:13:01.653Z,15.80
2018-04-20T03:15:27.990Z,15.70
2018-04-20T03:17:54.344Z,15.80
2018-04-20T03:20:20.666Z,15.80
2018-04-20T03:22:47.133Z,15.70
2018-04-20T03:25:13.436Z,15.80
2018-04-20T03:27:39.793Z,15.70
2018-04-20T03:30:06.126Z,15.60
2018-04-20T03:32:32.449Z,15.60
2018-04-20T03:34:58.829Z,15.70
2018-04-20T03:37:25.149Z,15.70
2018-04-20T03:39:55.937Z,15.60
2018-04-20T03:42:22.849Z,15.60
2018-04-20T03:44:49.215Z,15.60
2018-04-20T03:47:15.549Z,15.60
2018-04-20T03:49:41.889Z,15.60
2018-04-20T03:52:08.206Z,15.50
2018-04-20T03:54:38.877Z,15.40
2018-04-20T03:57:05.207Z,15.40
2018-04-20T03:59:31.566Z,15.50
2018-04-20T04:01:57.885Z,15.40
2018-04-20T04:04:24.275Z,15.30
2018-04-20T04:06:50.582Z,15.30
2018-04-20T04:09:16.992Z,15.40
2018-04-20T04:11:43.308Z,15.30
2018-04-20T04:14:09.670Z,15.30
2018-04-20T04:16:48.529Z,15.50
2018-04-20T04:19:27.245Z,15.50
2018-04-20T04:22:05.736Z,15.60
2018-04-20T04:24:44.546Z,15.50
2018-04-20T04:27:23.049Z,15.40
2018-04-20T04:29:50.178Z,15.40
2018-04-20T04:32:16.508Z,15.40
2018-04-20T04:34:42.934Z,15.40
2018-04-20T04:37:10.002Z,15.40
2018-04-20T04:39:36.336Z,15.40
2018-04-20T04:42:02.667Z,15.40
2018-04-20T04:44:29.021Z,15.40
2018-04-20T04:46:55.351Z,15.40
2018-04-20T04:49:21.752Z,15.40
2018-04-20T04:51:48.062Z,15.40
2018-04-20T04:54:15.158Z,15.50
2018-04-20T04:56:41.493Z,15.40
2018-04-20T04:59:07.846Z,15.40
2018-04-20T05:01:34.173Z,15.60
2018-04-20T05:04:00.570Z,15.60
2018-04-20T05:06:27.151Z,15.60
2018-04-20T05:08:53.481Z,15.50
2018-04-20T05:11:19.801Z,15.40
2018-04-20T05:13:46.889Z,15.50
2018-04-20T05:16:13.273Z,15.50
2018-04-20T05:18:39.594Z,15.60
2018-04-20T05:21:05.998Z,15.70
2018-04-20T05:23:32.309Z,15.80
2018-04-20T05:25:58.649Z,15.70
2018-04-20T05:28:24.969Z,15.80
2018-04-20T05:30:51.334Z,15.80
2018-04-20T05:33:17.997Z,15.90
2018-04-20T05:35:44.406Z,16.00
2018-04-20T05:38:10.723Z,16.10
2018-04-20T05:40:37.123Z,16.10
2018-04-20T05:43:03.439Z,16.20
2018-04-20T05:45:30.536Z,16.20
2018-04-20T05:47:56.921Z,16.20
2018-04-20T05:50:24.077Z,16.20
2018-04-20T05:52:51.160Z,16.20
2018-04-20T05:55:17.530Z,16.20
2018-04-20T05:57:43.872Z,16.40
2018-04-20T06:00:11.077Z,16.50
2018-04-20T06:02:37.485Z,16.40
2018-04-20T06:05:03.888Z,16.60
2018-04-20T06:07:30.982Z,16.50
2018-04-20T06:09:57.340Z,16.50
2018-04-20T06:12:23.685Z,16.70
2018-04-20T06:14:50.061Z,16.60
2018-04-20T06:17:16.385Z,16.60
2018-04-20T06:19:43.097Z,16.70
2018-04-20T06:22:09.415Z,16.80
2018-04-20T06:24:36.525Z,16.90
2018-04-20T06:27:02.919Z,16.90
2018-04-20T06:29:29.247Z,16.90
2018-04-20T06:31:55.577Z,17.00
2018-04-20T06:34:22.627Z,17.10
2018-04-20T06:36:48.984Z,17.10
2018-04-20T06:39:15.308Z,17.20
2018-04-20T06:41:41.673Z,17.30
2018-04-20T06:44:07.976Z,17.40
2018-04-20T06:46:34.322Z,17.40
2018-04-20T06:49:02.187Z,17.60
2018-04-20T06:51:30.034Z,17.50
2018-04-20T06:53:56.383Z,17.50
2018-04-20T06:56:22.728Z,17.60
2018-04-20T06:58:49.102Z,17.80
2018-04-20T07:01:15.436Z,17.80
2018-04-20T07:03:41.764Z,18.00
2018-04-20T07:06:08.163Z,18.10
2018-04-20T07:08:35.235Z,18.20
2018-04-20T07:11:01.605Z,18.10
2018-04-20T07:13:27.943Z,18.20
2018-04-20T07:15:54.285Z,18.30
2018-04-20T07:18:20.666Z,18.50
2018-04-20T07:20:47.745Z,18.70
2018-04-20T07:23:14.084Z,18.60
2018-04-20T07:25:40.447Z,18.60
2018-04-20T07:28:06.763Z,18.70
2018-04-20T07:30:33.861Z,18.80
2018-04-20T07:33:00.182Z,18.80
2018-04-20T07:35:27.266Z,19.00
2018-04-20T07:37:53.668Z,19.00
2018-04-20T07:40:20.030Z,19.00
2018-04-20T07:42:46.386Z,19.00
2018-04-20T07:45:12.706Z,19.10
2018-04-20T07:47:39.046Z,19.10
2018-04-20T07:50:05.418Z,19.10
2018-04-20T07:52:31.725Z,19.10
2018-04-20T07:54:58.803Z,19.40
2018-04-20T07:57:25.120Z,19.30
2018-04-20T07:59:52.199Z,19.50
2018-04-20T08:02:18.507Z,19.40
2018-04-20T08:04:44.854Z,19.50
2018-04-20T08:07:11.497Z,19.50
2018-04-20T08:09:38.678Z,19.70
2018-04-20T08:12:05.029Z,19.70
2018-04-20T08:14:32.113Z,19.90
2018-04-20T08:16:58.422Z,19.80
2018-04-20T08:19:26.473Z,19.90
2018-04-20T08:21:53.584Z,20.10
2018-04-20T08:24:19.906Z,20.00
2018-04-20T08:26:46.249Z,20.10
2018-04-20T08:29:12.606Z,20.20
2018-04-20T08:31:40.208Z,20.40
2018-04-20T08:34:06.553Z,20.40
2018-04-20T08:36:32.898Z,20.40
2018-04-20T08:38:59.240Z,20.50
2018-04-20T08:41:25.581Z,20.60
2018-04-20T08:43:51.911Z,20.70
2018-04-20T08:46:18.282Z,20.80
2018-04-20T08:48:44.592Z,20.80
2018-04-20T08:51:11.655Z,21.00
2018-04-20T08:53:37.965Z,20.90
2018-04-20T08:56:04.308Z,21.10
2018-04-20T08:58:31.359Z,21.10
2018-04-20T09:00:58.450Z,21.20
2018-04-20T09:03:24.778Z,21.10
2018-04-20T09:05:51.092Z,21.20
2018-04-20T09:08:17.445Z,21.30
2018-04-20T09:10:43.799Z,21.40
2018-04-20T09:13:10.132Z,21.60
2018-04-20T09:15:37.185Z,21.60
2018-04-20T09:18:04.278Z,21.80
2018-04-20T09:20:30.602Z,21.70
2018-04-20T09:22:56.936Z,21.90
2018-04-20T09:25:23.261Z,22.00
2018-04-20T09:27:49.618Z,22.10
2018-04-20T09:30:15.925Z,22.20
2018-04-20T09:32:42.254Z,22.10
2018-04-20T09:35:08.565Z,22.20
2018-04-20T09:37:35.642Z,22.30
2018-04-20T09:40:01.972Z,22.30
2018-04-20T09:42:28.319Z,22.40
2018-04-20T09:44:54.685Z,22.40
2018-04-20T09:47:22.651Z,22.50
2018-04-20T09:49:49.746Z,22.50
2018-04-20T09:52:16.076Z,22.50
2018-04-20T09:54:42.447Z,22.70
2018-04-20T09:57:09.546Z,22.80
2018-04-20T09:59:35.885Z,22.70
2018-04-20T10:02:02.223Z,22.80
2018-04-20T10:04:29.531Z,23.00
2018-04-20T10:06:56.667Z,23.10
2018-04-20T10:09:24.470Z,23.00
2018-04-20T10:11:50.812Z,23.00
2018-04-20T10:14:17.144Z,23.10
2018-04-20T10:16:43.477Z,23.10
2018-04-20T10:19:09.887Z,23.20
2018-04-20T10:21:36.914Z,23.30
2018-04-20T10:24:04.001Z,23.40
2018-04-20T10:26:30.331Z,23.40
2018-04-20T10:28:56.681Z,23.40
2018-04-20T10:31:23.017Z,23.50
2018-04-20T10:33:49.348Z,23.40
2018-04-20T10:36:16.001Z,23.70
2018-04-20T10:38:42.331Z,23.80
2018-04-20T10:41:09.495Z,23.80
2018-04-20T10:43:35.773Z,23.70
2018-04-20T10:46:02.125Z,23.90
2018-04-20T10:48:28.434Z,23.90
2018-04-20T10:50:54.781Z,24.00
2018-04-20T10:53:21.134Z,24.10
2018-04-20T10:55:47.482Z,24.10
2018-04-20T10:58:14.554Z,24.10
2018-04-20T11:00:40.884Z,24.10
2018-04-20T11:03:07.193Z,24.20
2018-04-20T11:05:34.277Z,24.40
2018-04-20T11:08:00.582Z,24.30
2018-04-20T11:10:26.945Z,24.60
2018-04-20T11:12:53.279Z,24.60
2018-04-20T11:15:19.626Z,24.80
2018-04-20T11:17:47.434Z,24.70
2018-04-20T11:20:13.806Z,24.70
2018-04-20T11:22:40.167Z,24.80
2018-04-20T11:25:07.275Z,24.90
2018-04-20T11:27:33.577Z,24.80
2018-04-20T11:29:59.945Z,25.00
2018-04-20T11:32:26.250Z,25.10
2018-04-20T11:34:52.562Z,25.20
2018-04-20T11:37:18.911Z,25.20
2018-04-20T11:39:45.257Z,25.20
2018-04-20T11:42:11.590Z,25.30
2018-04-20T11:44:38.413Z,25.40
2018-04-20T11:47:04.760Z,25.50
2018-04-20T11:49:31.079Z,25.70
2018-04-20T11:51:57.423Z,25.90
2018-04-20T11:54:23.729Z,25.90
2018-04-20T11:56:50.086Z,25.80
2018-04-20T11:59:16.397Z,25.90
2018-04-20T12:01:42.747Z,26.10
2018-04-20T12:04:09.040Z,26.00
2018-04-20T12:06:35.366Z,26.00
2018-04-20T12:09:02.454Z,26.10
2018-04-20T12:11:28.799Z,26.00
2018-04-20T12:13:55.115Z,26.10
2018-04-20T12:16:21.469Z,26.10
2018-04-20T12:18:47.799Z,26.20
2018-04-20T12:21:15.138Z,26.40
2018-04-20T12:23:41.459Z,26.40
2018-04-20T12:26:07.789Z,26.30
2018-04-20T12:28:34.102Z,26.50
2018-04-20T12:31:00.442Z,26.60
2018-04-20T12:33:26.767Z,26.50
2018-04-20T12:35:53.104Z,26.70
2018-04-20T12:38:19.431Z,26.90
2018-04-20T12:40:45.745Z,26.80
2018-04-20T12:43:12.091Z,27.00
2018-04-20T12:45:38.441Z,27.10
2018-04-20T12:48:05.554Z,27.10
2018-04-20T12:50:31.897Z,27.00
2018-04-20T12:52:58.272Z,27.10
2018-04-20T12:55:25.344Z,27.40
2018-04-20T12:57:51.700Z,27.30
2018-04-20T13:00:18.137Z,27.30
2018-04-20T13:02:44.537Z,27.40
2018-04-20T13:05:10.862Z,27.60
2018-04-20T13:07:37.940Z,27.90
2018-04-20T13:10:04.279Z,27.80
2018-04-20T13:12:30.634Z,28.00
2018-04-20T13:14:57.587Z,28.10
2018-04-20T13:17:23.924Z,28.10
2018-04-20T13:19:50.238Z,28.10
2018-04-20T13:22:16.567Z,28.20
2018-04-20T13:24:42.896Z,28.40
2018-04-20T13:27:09.254Z,28.60
2018-04-20T13:29:36.313Z,28.60
2018-04-20T13:32:02.694Z,28.60
2018-04-20T13:34:29.026Z,28.90
2018-04-20T13:36:55.349Z,28.50
2018-04-20T13:39:21.701Z,28.40
2018-04-20T13:41:48.082Z,28.60
2018-04-20T13:44:14.519Z,29.00
2018-04-20T13:46:40.928Z,29.40
2018-04-20T13:49:08.061Z,29.00
2018-04-20T13:51:34.374Z,29.00
2018-04-20T13:54:00.730Z,29.50
2018-04-20T13:56:27.044Z,29.70
2018-04-20T13:58:53.364Z,29.90
2018-04-20T14:01:19.687Z,30.20
2018-04-20T14:03:46.042Z,30.30
2018-04-20T14:06:13.850Z,30.20
2018-04-20T14:08:40.221Z,30.20
2018-04-20T14:11:06.537Z,30.50
2018-04-20T14:13:32.874Z,30.70
2018-04-20T14:15:59.189Z,31.20
2018-04-20T14:18:25.539Z,31.50
2018-04-20T14:20:51.849Z,31.70
2018-04-20T14:23:18.195Z,31.60
2018-04-20T14:25:44.505Z,31.20
2018-04-20T14:28:10.859Z,30.90
2018-04-20T14:30:37.185Z,30.60
2018-04-20T14:33:03.539Z,30.90
2018-04-20T14:35:29.846Z,31.00
2018-04-20T14:37:56.162Z,30.90
2018-04-20T14:40:22.518Z,30.90
2018-04-20T14:42:48.816Z,31.20
2018-04-20T14:45:15.174Z,31.20
2018-04-20T14:47:41.487Z,31.70
2018-04-20T14:50:07.818Z,32.20
2018-04-20T14:52:34.994Z,32.50
2018-04-20T14:55:01.346Z,33.00
2018-04-20T14:57:28.412Z,33.20
2018-04-20T14:59:54.750Z,33.20
2018-04-20T15:02:21.068Z,33.20
2018-04-20T15:04:47.434Z,33.20
2018-04-20T15:07:13.737Z,33.20
2018-04-20T15:09:40.087Z,32.80
2018-04-20T15:12:06.393Z,33.60
2018-04-20T15:14:32.748Z,34.10
2018-04-20T15:16:59.061Z,34.00
2018-04-20T15:19:25.449Z,33.70
2018-04-20T15:21:51.743Z,34.20
2018-04-20T15:24:18.102Z,34.00
2018-04-20T15:26:44.417Z,33.70
2018-04-20T15:29:10.763Z,34.20
2018-04-20T15:31:37.067Z,33.80
2018-04-20T15:34:03.415Z,34.00
2018-04-20T15:36:29.714Z,34.20
2018-04-20T15:38:56.806Z,34.10
2018-04-20T15:41:23.867Z,34.10
2018-04-20T15:43:50.950Z,33.80
2018-04-20T15:46:17.276Z,33.80
2018-04-20T15:48:43.669Z,33.00
2018-04-20T15:51:10.758Z,32.80
2018-04-20T15:53:37.082Z,32.70
2018-04-20T15:56:03.430Z,32.90
2018-04-20T15:58:29.750Z,32.80
2018-04-20T16:00:56.131Z,33.20
2018-04-20T16:03:22.488Z,32.30
2018-04-20T16:05:48.845Z,31.70
2018-04-20T16:08:15.189Z,32.00
2018-04-20T16:10:41.592Z,31.90
2018-04-20T16:13:07.945Z,31.80
2018-04-20T16:15:34.902Z,31.70
2018-04-20T16:18:01.501Z,32.00
2018-04-20T16:20:27.868Z,31.80
2018-04-20T16:22:54.178Z,32.50
2018-04-20T16:25:20.517Z,32.90
2018-04-20T16:27:46.854Z,32.30
2018-04-20T16:30:13.208Z,32.60
2018-04-20T16:32:39.513Z,33.40
2018-04-20T16:35:05.910Z,33.20
2018-04-20T16:37:32.236Z,33.40
2018-04-20T16:39:58.623Z,32.10
2018-04-20T16:42:24.953Z,31.30
2018-04-20T16:44:51.307Z,31.70
2018-04-20T16:47:18.953Z,31.80
2018-04-20T16:49:45.294Z,31.70
2018-04-20T16:52:12.411Z,30.70
2018-04-20T16:54:38.793Z,30.60
2018-04-20T16:57:05.521Z,30.60
2018-04-20T16:59:33.642Z,29.90
2018-04-20T17:01:59.975Z,29.80
2018-04-20T17:04:26.333Z,30.20
2018-04-20T17:06:52.685Z,30.00
2018-04-20T17:09:19.758Z,29.40
2018-04-20T17:11:46.094Z,29.30
2018-04-20T17:14:12.447Z,28.90
2018-04-20T17:16:38.799Z,29.20
2018-04-20T17:19:05.131Z,28.60
2018-04-20T17:21:31.485Z,28.70
2018-04-20T17:23:57.813Z,28.10
2018-04-20T17:26:24.218Z,27.70
2018-04-20T17:28:51.296Z,27.20
2018-04-20T17:31:17.651Z,27.10
2018-04-20T17:33:43.970Z,27.10
2018-04-20T17:36:10.315Z,27.20
2018-04-20T17:38:36.667Z,27.10
2018-04-20T17:41:03.011Z,26.40
2018-04-20T17:43:29.321Z,26.20
2018-04-20T17:45:56.404Z,25.80
2018-04-20T17:48:23.470Z,25.70
2018-04-20T17:50:49.842Z,25.60
2018-04-20T17:53:16.197Z,25.60
2018-04-20T17:55:42.545Z,25.40
2018-04-20T17:58:09.619Z,25.40
2018-04-20T18:00:36.195Z,25.40
2018-04-20T18:03:02.531Z,25.10
2018-04-20T18:05:28.902Z,25.00
2018-04-20T18:07:55.219Z,25.00
2018-04-20T18:10:22.337Z,24.80
2018-04-20T18:12:48.685Z,24.80
2018-04-20T18:15:15.011Z,24.70
2018-04-20T18:17:41.362Z,24.60
2018-04-20T18:20:08.434Z,24.50
2018-04-20T18:22:34.791Z,24.40
2018-04-20T18:25:01.097Z,24.40
2018-04-20T18:27:27.452Z,24.60
2018-04-20T18:29:53.757Z,24.40
2018-04-20T18:32:20.090Z,24.40
2018-04-20T18:34:46.417Z,24.40
2018-04-20T18:37:12.781Z,24.10
2018-04-20T18:39:39.137Z,24.10
2018-04-20T18:42:05.511Z,24.10
2018-04-20T18:44:31.843Z,24.10
2018-04-20T18:46:58.207Z,23.90
2018-04-20T18:49:24.581Z,23.90
2018-04-20T18:51:51.674Z,23.70
2018-04-20T18:54:17.985Z,23.70
2018-04-20T18:56:44.318Z,23.70
2018-04-20T18:59:10.668Z,23.70
2018-04-20T19:01:37.074Z,23.50
2018-04-20T19:04:03.417Z,23.40
2018-04-20T19:06:29.767Z,23.30
2018-04-20T19:08:56.109Z,23.30
2018-04-20T19:11:22.584Z,23.20
2018-04-20T19:13:48.786Z,23.40
2018-04-20T19:16:16.065Z,23.40
2018-04-20T19:18:43.258Z,23.20
2018-04-20T19:21:10.447Z,23.20
2018-04-20T19:23:37.504Z,22.80
2018-04-20T19:26:04.601Z,23.00
2018-04-20T19:28:30.936Z,22.90
2018-04-20T19:30:57.266Z,23.10
2018-04-20T19:33:23.613Z,23.00
2018-04-20T19:35:49.931Z,23.10
2018-04-20T19:38:16.280Z,23.20
2018-04-20T19:40:42.652Z,23.30
2018-04-20T19:43:09.025Z,23.10
2018-04-20T19:45:35.357Z,23.10
2018-04-20T19:48:01.696Z,22.70
2018-04-20T19:50:28.036Z,22.50
2018-04-20T19:52:54.388Z,22.30
2018-04-20T19:55:20.749Z,22.30
2018-04-20T19:57:47.127Z,22.30
2018-04-20T20:00:13.513Z,22.30
2018-04-20T20:02:39.874Z,22.30
2018-04-20T20:05:06.228Z,22.10
2018-04-20T20:07:33.330Z,21.90
2018-04-20T20:09:59.654Z,21.80
2018-04-20T20:12:25.986Z,21.80
2018-04-20T20:14:52.321Z,21.70
2018-04-20T20:17:18.676Z,21.60
2018-04-20T20:19:45.041Z,21.70
2018-04-20T20:22:12.129Z,21.90
2018-04-20T20:24:38.454Z,21.80
2018-04-20T20:27:04.785Z,21.80
2018-04-20T20:29:31.076Z,21.70
2018-04-20T20:31:58.161Z,21.20
2018-04-20T20:34:24.465Z,21.20
2018-04-20T20:36:50.825Z,21.20
2018-04-20T20:39:17.125Z,21.10
2018-04-20T20:41:43.494Z,21.10
2018-04-20T20:44:09.812Z,21.10
2018-04-20T20:46:36.907Z,21.40
2018-04-20T20:49:03.236Z,21.30
2018-04-20T20:51:29.565Z,21.20
2018-04-20T20:53:55.921Z,21.00
2018-04-20T20:56:22.984Z,21.10
2018-04-20T20:58:49.368Z,21.10
2018-04-20T21:01:15.687Z,21.00
2018-04-20T21:03:42.046Z,20.80
2018-04-20T21:06:09.109Z,20.90
2018-04-20T21:08:35.439Z,20.90
2018-04-20T21:11:01.753Z,20.90
2018-04-20T21:13:28.856Z,20.40
2018-04-20T21:15:55.202Z,20.30
2018-04-20T21:18:21.585Z,20.40
2018-04-20T21:20:47.915Z,20.30
2018-04-20T21:23:14.278Z,20.60
2018-04-20T21:25:40.630Z,20.60
2018-04-20T21:28:06.984Z,20.50
2018-04-20T21:30:34.061Z,20.10
2018-04-20T21:33:00.408Z,20.00
2018-04-20T21:35:26.720Z,19.80
2018-04-20T21:37:53.159Z,19.70
2018-04-20T21:40:19.481Z,19.80
2018-04-20T21:42:45.873Z,19.80
2018-04-20T21:45:12.196Z,19.60
2018-04-20T21:47:38.575Z,19.50
2018-04-20T21:50:04.954Z,19.40
2018-04-20T21:52:31.354Z,19.40
2018-04-20T21:54:57.673Z,19.40
2018-04-20T21:57:24.088Z,19.50
2018-04-20T21:59:50.401Z,19.40
2018-04-20T22:02:17.495Z,19.50
2018-04-20T22:04:44.393Z,19.40
2018-04-20T22:07:10.742Z,19.40
2018-04-20T22:09:37.049Z,19.50
2018-04-20T22:12:04.110Z,19.70
2018-04-20T22:14:31.204Z,19.50
2018-04-20T22:16:57.515Z,19.50
2018-04-20T22:19:23.871Z,19.40
2018-04-20T22:21:51.736Z,19.40
2018-04-20T22:24:18.100Z,19.20
2018-04-20T22:26:45.151Z,19.20
2018-04-20T22:29:12.249Z,19.10
2018-04-20T22:31:38.554Z,19.10
2018-04-20T22:34:04.927Z,19.10
2018-04-20T22:36:31.279Z,19.00
2018-04-20T22:38:58.307Z,19.10
2018-04-20T22:41:24.631Z,19.10
2018-04-20T22:43:51.019Z,19.10
2018-04-20T22:46:17.358Z,19.20
2018-04-20T22:48:43.734Z,18.80
2018-04-20T22:51:10.081Z,18.80
2018-04-20T22:53:36.448Z,18.60
2018-04-20T22:56:05.004Z,18.50
2018-04-20T22:58:32.119Z,18.40
2018-04-20T23:00:58.442Z,18.30
2018-04-20T23:03:24.868Z,18.50
2018-04-20T23:05:51.246Z,18.50
2018-04-20T23:08:18.314Z,18.00
2018-04-20T23:10:44.643Z,17.90
2018-04-20T23:13:11.738Z,17.80
2018-04-20T23:15:38.078Z,17.80
2018-04-20T23:18:04.382Z,17.80
2018-04-20T23:20:30.739Z,17.90
2018-04-20T23:22:57.115Z,17.90
2018-04-20T23:25:23.446Z,18.00
2018-04-20T23:27:49.768Z,18.00
2018-04-20T23:30:16.815Z,17.60
2018-04-20T23:32:43.152Z,17.50
2018-04-20T23:35:09.494Z,17.70
2018-04-20T23:37:35.814Z,17.50
2018-04-20T23:40:02.198Z,17.40
2018-04-20T23:42:29.489Z,17.60
2018-04-20T23:44:56.595Z,18.00
2018-04-20T23:47:24.413Z,18.00
2018-04-20T23:49:50.789Z,17.90
2018-04-20T23:52:17.098Z,17.80
2018-04-20T23:54:44.100Z,17.90
2018-04-20T23:57:11.225Z,17.80
2018-04-20T23:59:37.603Z,17.80
